Time;durP1;ratioP1;P1;durP2;ratioP2;P2;SDS_P1;SDS_P2;PMS_P1;PMS_P2;Temp;Humidity;BMP_temperature;BMP_pressure;BME280_temperature;BME280_humidity;BME280_pressure;Samples;Min_cycle;Max_cycle;Signal;HPM_P1;HPM_P2
2022/10/09 00:00:48;;;;;;;;;;;17.40;94.20;;;;;;5079718;28;19908;-93
2022/10/09 00:03:16;;;;;;;;;;;17.40;94.20;;;;;;5076642;28;20264;-93
2022/10/09 00:05:42;;;;;;;;;;;17.40;94.20;;;;;;5077248;28;19908;-93
2022/10/09 00:08:08;;;;;;;;;;;17.40;94.20;;;;;;5078810;28;19991;-93
2022/10/09 00:10:33;;;;;;;;;;;17.40;94.20;;;;;;5077728;28;19916;-93
2022/10/09 00:13:02;;;;;;;;;;;17.40;94.20;;;;;;5076464;28;20472;-93
2022/10/09 00:15:31;;;;;;;;;;;17.30;94.10;;;;;;5076543;28;19908;-93
2022/10/09 00:17:59;;;;;;;;;;;17.30;94.10;;;;;;5076915;28;19908;-93
2022/10/09 00:20:28;;;;;;;;;;;17.30;94.10;;;;;;5075560;28;19911;-93
2022/10/09 00:22:54;;;;;;;;;;;17.30;94.10;;;;;;5076340;28;20158;-93
2022/10/09 00:25:19;;;;;;;;;;;17.30;94.10;;;;;;5075294;28;20080;-93
2022/10/09 00:27:45;;;;;;;;;;;17.30;94.10;;;;;;5075347;28;20286;-93
2022/10/09 00:30:25;;;;;;;;;;;17.30;94.10;;;;;;5076029;28;20348;-92
2022/10/09 00:32:51;;;;;;;;;;;17.30;94.10;;;;;;5079275;28;20296;-92
2022/10/09 00:35:17;;;;;;;;;;;17.20;94.00;;;;;;5075567;28;19912;-92
2022/10/09 00:37:45;;;;;;;;;;;17.20;94.00;;;;;;5076206;28;19912;-92
2022/10/09 00:40:11;;;;;;;;;;;17.20;94.10;;;;;;5077677;28;19908;-92
2022/10/09 00:42:37;;;;;;;;;;;17.20;94.10;;;;;;5078983;28;19908;-92
2022/10/09 00:45:11;;;;;;;;;;;17.20;94.00;;;;;;5077842;28;19927;-92
2022/10/09 00:47:38;;;;;;;;;;;17.20;94.00;;;;;;5078453;28;19912;-92
2022/10/09 00:50:04;;;;;;;;;;;17.20;94.00;;;;;;5077219;28;19956;-92
2022/10/09 00:52:31;;;;;;;;;;;17.20;94.00;;;;;;5078771;28;20004;-92
2022/10/09 00:55:00;;;;;;;;;;;17.20;94.00;;;;;;5077800;28;19935;-92
2022/10/09 00:57:26;;;;;;;;;;;17.10;93.90;;;;;;5078485;28;19908;-92
2022/10/09 00:59:54;;;;;;;;;;;17.10;93.90;;;;;;5078154;28;19972;-92
2022/10/09 01:02:21;;;;;;;;;;;17.10;93.90;;;;;;5079290;28;19959;-92
2022/10/09 01:04:49;;;;;;;;;;;17.10;93.90;;;;;;5079264;28;20262;-92
2022/10/09 01:07:15;;;;;;;;;;;17.10;93.90;;;;;;5078993;28;19924;-92
2022/10/09 01:09:45;;;;;;;;;;;17.10;94.00;;;;;;5078590;28;19915;-92
2022/10/09 01:12:26;;;;;;;;;;;17.10;93.90;;;;;;5079656;28;19916;-92
2022/10/09 01:15:06;;;;;;;;;;;17.10;94.00;;;;;;5079910;28;20256;-92
2022/10/09 01:17:51;;;;;;;;;;;17.10;93.90;;;;;;5077753;28;19912;-92
2022/10/09 01:20:22;;;;;;;;;;;17.00;93.90;;;;;;5078670;28;20331;-92
2022/10/09 01:23:08;;;;;;;;;;;17.00;93.90;;;;;;5079675;28;19908;-92
2022/10/09 01:25:37;;;;;;;;;;;17.00;93.90;;;;;;5078281;28;19916;-92
2022/10/09 01:28:06;;;;;;;;;;;17.00;93.90;;;;;;5079296;28;20214;-92
2022/10/09 01:30:32;;;;;;;;;;;17.00;93.90;;;;;;5077316;28;19909;-93
2022/10/09 01:33:00;;;;;;;;;;;17.00;93.90;;;;;;5078392;28;19935;-92
2022/10/09 01:35:26;;;;;;;;;;;17.00;93.90;;;;;;5077818;28;19916;-92
2022/10/09 01:37:53;;;;;;;;;;;17.00;93.80;;;;;;5080638;28;20281;-93
2022/10/09 01:40:23;;;;;;;;;;;17.00;93.90;;;;;;5080714;28;20288;-93
2022/10/09 01:42:52;;;;;;;;;;;17.00;93.80;;;;;;5079199;28;19916;-93
2022/10/09 01:45:20;;;;;;;;;;;16.90;93.80;;;;;;5080555;28;19920;-93
2022/10/09 01:47:46;;;;;;;;;;;16.90;93.80;;;;;;5081217;28;19909;-93
2022/10/09 01:50:19;;;;;;;;;;;16.90;93.80;;;;;;5081055;28;19919;-93
2022/10/09 01:53:02;;;;;;;;;;;16.90;93.80;;;;;;5080035;28;19908;-93
2022/10/09 01:55:37;;;;;;;;;;;16.90;93.70;;;;;;5078831;28;20043;-92
2022/10/09 01:58:21;;;;;;;;;;;16.90;93.80;;;;;;5079421;28;20083;-93
2022/10/09 02:00:52;;;;;;;;;;;16.90;93.80;;;;;;5076862;28;19909;-93
2022/10/09 02:03:25;;;;;;;;;;;16.80;93.80;;;;;;5079352;28;19919;-93
2022/10/09 02:05:57;;;;;;;;;;;16.80;93.80;;;;;;5079777;28;19986;-93
2022/10/09 02:08:27;;;;;;;;;;;16.80;93.70;;;;;;5079884;28;20266;-93
2022/10/09 02:10:54;;;;;;;;;;;16.80;93.70;;;;;;5078652;28;19908;-93
2022/10/09 02:13:22;;;;;;;;;;;16.80;93.70;;;;;;5079057;28;19919;-92
2022/10/09 02:15:50;;;;;;;;;;;16.80;93.70;;;;;;5079280;28;20190;-93
2022/10/09 02:18:20;;;;;;;;;;;16.80;93.70;;;;;;5079366;28;20189;-93
2022/10/09 02:20:49;;;;;;;;;;;16.80;93.70;;;;;;5079087;28;20297;-93
2022/10/09 02:23:15;;;;;;;;;;;16.70;93.60;;;;;;5079202;28;19916;-93
2022/10/09 02:25:41;;;;;;;;;;;16.80;93.70;;;;;;5080184;28;19923;-93
2022/10/09 02:28:08;;;;;;;;;;;16.70;93.60;;;;;;5080122;28;20270;-93
2022/10/09 02:30:49;;;;;;;;;;;16.80;93.70;;;;;;5062843;28;19912;-93
2022/10/09 02:33:27;;;;;;;;;;;16.70;93.60;;;;;;5079230;28;19916;-93
2022/10/09 02:35:56;;;;;;;;;;;16.70;93.60;;;;;;5078777;28;20290;-93
2022/10/09 02:38:22;;;;;;;;;;;16.70;93.60;;;;;;5077436;28;19912;-93
2022/10/09 02:40:47;;;;;;;;;;;16.70;93.60;;;;;;5077832;28;20030;-93
2022/10/09 02:43:13;;;;;;;;;;;16.70;93.60;;;;;;5078376;28;19998;-92
2022/10/09 02:45:42;;;;;;;;;;;16.70;93.50;;;;;;5077069;28;19908;-93
2022/10/09 02:48:07;;;;;;;;;;;16.70;93.50;;;;;;5078175;28;20376;-92
2022/10/09 02:50:34;;;;;;;;;;;16.70;93.50;;;;;;5076677;28;19912;-92
2022/10/09 02:52:59;;;;;;;;;;;16.60;93.50;;;;;;5077144;28;20288;-92
2022/10/09 02:55:25;;;;;;;;;;;16.70;93.50;;;;;;5076950;28;19977;-92
2022/10/09 02:57:51;;;;;;;;;;;16.60;93.50;;;;;;5077871;28;19909;-93
2022/10/09 03:00:17;;;;;;;;;;;16.60;93.40;;;;;;5076542;28;19915;-92
2022/10/09 03:02:42;;;;;;;;;;;16.60;93.40;;;;;;5075172;28;20008;-93
2022/10/09 03:07:58;;;;;;;;;;;16.60;93.40;;;;;;5065677;28;19975;-93
2022/10/09 03:10:27;;;;;;;;;;;16.60;93.40;;;;;;5077394;28;20019;-93
2022/10/09 03:12:52;;;;;;;;;;;16.60;93.40;;;;;;5077068;28;19912;-93
2022/10/09 03:15:21;;;;;;;;;;;16.60;93.30;;;;;;5077738;28;19909;-93
2022/10/09 03:17:50;;;;;;;;;;;16.60;93.30;;;;;;5077281;28;20205;-93
2022/10/09 03:20:15;;;;;;;;;;;16.60;93.30;;;;;;5077652;28;19912;-93
2022/10/09 03:22:41;;;;;;;;;;;16.60;93.30;;;;;;5078126;28;20072;-92
2022/10/09 03:25:07;;;;;;;;;;;16.60;93.30;;;;;;5078191;28;19963;-92
2022/10/09 03:27:32;;;;;;;;;;;16.60;93.30;;;;;;5094761;28;19908;-93
2022/10/09 03:29:59;;;;;;;;;;;16.50;93.30;;;;;;5077574;28;20293;-93
2022/10/09 03:32:24;;;;;;;;;;;16.50;93.30;;;;;;5078183;28;19908;-94
2022/10/09 03:34:52;;;;;;;;;;;16.50;93.30;;;;;;5077622;28;19908;-93
2022/10/09 03:37:18;;;;;;;;;;;16.50;93.20;;;;;;5076851;28;19916;-92
2022/10/09 03:39:46;;;;;;;;;;;16.50;93.20;;;;;;5076611;28;19915;-93
2022/10/09 03:42:12;;;;;;;;;;;16.50;93.30;;;;;;5075381;28;19989;-92
2022/10/09 03:44:37;;;;;;;;;;;16.50;93.20;;;;;;5075561;28;20159;-92
2022/10/09 03:47:03;;;;;;;;;;;16.50;93.20;;;;;;5074516;28;19920;-92
2022/10/09 03:49:29;;;;;;;;;;;16.40;93.20;;;;;;5075403;28;19920;-94
2022/10/09 03:51:57;;;;;;;;;;;16.40;93.20;;;;;;5075412;28;19905;-93
2022/10/09 03:54:26;;;;;;;;;;;16.40;93.20;;;;;;5074311;28;19915;-93
2022/10/09 03:57:01;;;;;;;;;;;16.50;93.20;;;;;;5075309;28;19955;-92
2022/10/09 03:59:30;;;;;;;;;;;16.40;93.10;;;;;;5076003;28;19908;-93
2022/10/09 04:01:55;;;;;;;;;;;16.40;93.10;;;;;;5076847;28;19908;-92
2022/10/09 04:04:21;;;;;;;;;;;16.40;93.10;;;;;;5077497;28;20147;-93
2022/10/09 04:06:46;;;;;;;;;;;16.40;93.10;;;;;;5080611;28;20188;-92
2022/10/09 04:09:12;;;;;;;;;;;16.40;93.10;;;;;;5082302;28;19978;-92
2022/10/09 04:11:40;;;;;;;;;;;16.40;93.10;;;;;;5081439;28;19977;-92
2022/10/09 04:14:06;;;;;;;;;;;16.40;93.10;;;;;;5081997;28;19950;-92
2022/10/09 04:16:31;;;;;;;;;;;16.40;93.00;;;;;;5081222;28;19951;-93
2022/10/09 04:18:57;;;;;;;;;;;16.50;92.90;;;;;;5080813;28;19908;-92
2022/10/09 04:21:26;;;;;;;;;;;16.50;92.90;;;;;;5080006;28;19919;-93
2022/10/09 04:23:52;;;;;;;;;;;16.50;92.80;;;;;;5079213;28;19945;-92
2022/10/09 04:26:20;;;;;;;;;;;16.50;92.80;;;;;;5078300;28;19916;-92
2022/10/09 04:28:55;;;;;;;;;;;16.50;92.70;;;;;;5079281;28;19908;-92
2022/10/09 04:31:24;;;;;;;;;;;16.50;92.70;;;;;;5079880;28;20433;-92
2022/10/09 04:33:49;;;;;;;;;;;16.50;92.60;;;;;;5080011;28;19915;-95
2022/10/09 04:36:18;;;;;;;;;;;16.50;92.60;;;;;;5078735;28;19928;-92
2022/10/09 04:38:46;;;;;;;;;;;16.40;92.50;;;;;;5080086;28;19908;-92
2022/10/09 04:41:12;;;;;;;;;;;16.40;92.50;;;;;;5080275;28;19909;-93
2022/10/09 04:43:37;;;;;;;;;;;16.40;92.50;;;;;;5080481;28;19916;-92
2022/10/09 04:46:04;;;;;;;;;;;16.40;92.50;;;;;;5079940;28;20137;-92
2022/10/09 04:48:35;;;;;;;;;;;16.40;92.40;;;;;;5079792;28;20016;-92
2022/10/09 04:51:05;;;;;;;;;;;16.40;92.40;;;;;;5080618;28;19909;-92
2022/10/09 04:53:34;;;;;;;;;;;16.40;92.40;;;;;;5081401;28;19916;-92
2022/10/09 04:56:04;;;;;;;;;;;16.40;92.30;;;;;;5080678;28;19912;-92
2022/10/09 04:58:35;;;;;;;;;;;16.40;92.30;;;;;;5080803;28;19908;-92
2022/10/09 05:01:07;;;;;;;;;;;16.40;92.30;;;;;;5097505;28;19958;-92
2022/10/09 05:03:34;;;;;;;;;;;16.40;92.30;;;;;;5079176;28;19924;-92
2022/10/09 05:06:00;;;;;;;;;;;16.40;92.30;;;;;;5079911;28;19908;-92
2022/10/09 05:08:26;;;;;;;;;;;16.40;92.30;;;;;;5080018;28;19916;-92
2022/10/09 05:10:51;;;;;;;;;;;16.40;92.20;;;;;;5079998;28;19949;-93
2022/10/09 05:13:17;;;;;;;;;;;16.30;92.20;;;;;;5079594;28;19908;-92
2022/10/09 05:15:42;;;;;;;;;;;16.30;92.20;;;;;;5080078;28;19908;-93
2022/10/09 05:18:08;;;;;;;;;;;16.30;92.20;;;;;;5077079;28;19912;-92
2022/10/09 05:20:41;;;;;;;;;;;16.30;92.20;;;;;;5077249;28;19994;-92
2022/10/09 05:23:07;;;;;;;;;;;16.30;92.30;;;;;;5077458;28;19962;-93
2022/10/09 05:25:32;;;;;;;;;;;16.30;92.20;;;;;;5077369;28;19920;-92
2022/10/09 05:27:59;;;;;;;;;;;16.20;92.10;;;;;;5077407;28;19908;-92
2022/10/09 05:30:27;;;;;;;;;;;16.30;92.20;;;;;;5077420;28;19923;-92
2022/10/09 05:32:53;;;;;;;;;;;16.30;92.20;;;;;;5078657;28;19916;-93
2022/10/09 05:35:28;;;;;;;;;;;16.20;92.10;;;;;;5078256;28;19937;-93
2022/10/09 05:37:54;;;;;;;;;;;16.20;92.10;;;;;;5078816;28;20168;-93
2022/10/09 05:40:19;;;;;;;;;;;16.20;92.10;;;;;;5079150;28;19938;-92
2022/10/09 05:42:47;;;;;;;;;;;16.20;92.10;;;;;;5078333;28;19935;-93
2022/10/09 05:45:16;;;;;;;;;;;16.20;92.10;;;;;;5078741;28;19912;-92
2022/10/09 05:47:42;;;;;;;;;;;16.20;92.10;;;;;;5080454;28;19908;-92
2022/10/09 05:50:11;;;;;;;;;;;16.20;92.10;;;;;;5080621;28;19937;-92
2022/10/09 05:52:38;;;;;;;;;;;16.20;92.10;;;;;;5081095;28;19954;-92
2022/10/09 05:55:04;;;;;;;;;;;16.20;92.00;;;;;;5080091;28;20170;-92
2022/10/09 05:57:30;;;;;;;;;;;16.20;92.00;;;;;;5079592;28;20194;-92
2022/10/09 05:59:59;;;;;;;;;;;16.20;91.90;;;;;;5079361;28;19908;-92
2022/10/09 06:02:27;;;;;;;;;;;16.20;91.90;;;;;;5077872;28;19916;-93
2022/10/09 06:04:53;;;;;;;;;;;16.20;91.70;;;;;;5078107;28;19947;-92
2022/10/09 06:07:19;;;;;;;;;;;16.30;91.70;;;;;;5079383;28;19951;-93
2022/10/09 06:09:44;;;;;;;;;;;16.30;91.60;;;;;;5078719;28;20116;-92
2022/10/09 06:12:13;;;;;;;;;;;16.30;91.50;;;;;;5079402;28;19908;-92
2022/10/09 06:14:42;;;;;;;;;;;16.30;91.40;;;;;;5078711;28;19916;-93
2022/10/09 06:17:07;;;;;;;;;;;16.30;91.30;;;;;;5078028;28;20006;-92
2022/10/09 06:19:33;;;;;;;;;;;16.40;91.20;;;;;;5078101;28;19999;-93
2022/10/09 06:21:58;;;;;;;;;;;16.40;91.10;;;;;;5079192;28;20014;-92
2022/10/09 06:24:27;;;;;;;;;;;16.40;90.90;;;;;;5080299;28;19920;-92
2022/10/09 06:26:53;;;;;;;;;;;16.50;90.80;;;;;;5080120;28;20364;-93
2022/10/09 06:29:21;;;;;;;;;;;16.50;90.60;;;;;;5079960;28;19912;-92
2022/10/09 06:31:47;;;;;;;;;;;16.60;90.40;;;;;;5079552;28;20202;-92
2022/10/09 06:34:13;;;;;;;;;;;17.10;89.00;;;;;;5081853;28;19916;-92
2022/10/09 06:36:41;;;;;;;;;;;17.90;83.80;;;;;;5080435;28;19926;-92
2022/10/09 06:39:10;;;;;;;;;;;18.60;77.90;;;;;;5080468;28;20004;-92
2022/10/09 06:41:39;;;;;;;;;;;19.10;73.10;;;;;;5080295;28;19943;-93
2022/10/09 06:44:05;;;;;;;;;;;19.50;69.30;;;;;;5080767;28;19916;-92
2022/10/09 06:46:35;;;;;;;;;;;19.90;66.40;;;;;;5078570;28;19908;-92
2022/10/09 06:49:04;;;;;;;;;;;20.20;63.90;;;;;;5077774;28;20003;-92
2022/10/09 06:51:30;;;;;;;;;;;20.60;61.70;;;;;;5077967;28;19965;-92
2022/10/09 06:53:57;;;;;;;;;;;20.80;59.90;;;;;;5077269;28;20017;-92
2022/10/09 06:56:24;;;;;;;;;;;21.00;59.30;;;;;;5078169;28;19908;-92
2022/10/09 06:58:52;;;;;;;;;;;21.20;58.50;;;;;;5077059;28;19908;-93
2022/10/09 07:01:19;;;;;;;;;;;21.50;57.60;;;;;;5078266;28;19920;-92
2022/10/09 07:03:52;;;;;;;;;;;21.60;57.10;;;;;;5078021;28;20071;-93
2022/10/09 07:06:22;;;;;;;;;;;21.90;56.40;;;;;;5078445;28;19973;-92
2022/10/09 07:08:53;;;;;;;;;;;22.30;55.50;;;;;;5076907;28;19953;-92
2022/10/09 07:11:29;;;;;;;;;;;22.60;54.80;;;;;;5079054;28;20002;-92
2022/10/09 07:13:59;;;;;;;;;;;22.90;54.20;;;;;;5077481;28;19915;-92
2022/10/09 07:16:26;;;;;;;;;;;23.20;53.60;;;;;;5078999;28;19912;-93
2022/10/09 07:18:55;;;;;;;;;;;23.40;53.20;;;;;;5077922;28;20117;-92
2022/10/09 07:21:23;;;;;;;;;;;23.60;53.10;;;;;;5077230;28;19908;-92
2022/10/09 07:23:49;;;;;;;;;;;23.90;52.20;;;;;;5076244;28;20121;-92
2022/10/09 07:26:16;;;;;;;;;;;24.10;51.90;;;;;;5074974;28;19962;-92
2022/10/09 07:28:46;;;;;;;;;;;24.40;51.50;;;;;;5075709;28;19933;-92
2022/10/09 07:31:12;;;;;;;;;;;24.70;51.20;;;;;;5075066;28;19916;-92
2022/10/09 07:33:37;;;;;;;;;;;24.90;50.70;;;;;;5074627;28;19908;-92
2022/10/09 07:36:04;;;;;;;;;;;25.10;50.30;;;;;;5075237;28;19912;-92
2022/10/09 07:38:33;;;;;;;;;;;25.20;50.00;;;;;;5075304;28;19908;-92
2022/10/09 07:41:03;;;;;;;;;;;25.40;49.80;;;;;;5075482;28;19919;-92
2022/10/09 07:43:38;;;;;;;;;;;25.50;49.40;;;;;;5075364;28;19912;-92
2022/10/09 07:46:04;;;;;;;;;;;25.70;49.20;;;;;;5076646;28;20007;-92
2022/10/09 07:48:30;;;;;;;;;;;25.90;48.80;;;;;;5076056;28;19969;-92
2022/10/09 07:50:59;;;;;;;;;;;26.00;48.50;;;;;;5075437;28;19908;-93
2022/10/09 07:53:27;;;;;;;;;;;26.20;48.20;;;;;;5076169;28;20467;-92
2022/10/09 07:55:53;;;;;;;;;;;26.40;48.00;;;;;;5076755;28;19969;-92
2022/10/09 07:58:18;;;;;;;;;;;26.50;47.60;;;;;;5076167;28;19908;-93
2022/10/09 08:00:44;;;;;;;;;;;26.70;47.30;;;;;;5075046;28;20308;-92
2022/10/09 08:03:10;;;;;;;;;;;26.90;47.10;;;;;;5074302;28;20087;-92
2022/10/09 08:05:39;;;;;;;;;;;26.90;46.80;;;;;;5073534;28;19916;-92
2022/10/09 08:08:04;;;;;;;;;;;27.20;46.60;;;;;;5074013;28;20067;-92
2022/10/09 08:10:30;;;;;;;;;;;27.40;46.30;;;;;;5073798;28;19908;-92
2022/10/09 08:12:56;;;;;;;;;;;27.50;46.10;;;;;;5072939;28;19908;-92
2022/10/09 08:15:22;;;;;;;;;;;27.60;45.90;;;;;;5073595;28;19965;-92
2022/10/09 08:17:58;;;;;;;;;;;27.70;45.70;;;;;;5073830;28;19909;-92
2022/10/09 08:20:27;;;;;;;;;;;27.80;45.50;;;;;;5073680;28;19908;-92
2022/10/09 08:22:55;;;;;;;;;;;27.90;45.30;;;;;;5071997;28;19989;-93
2022/10/09 08:25:22;;;;;;;;;;;28.00;45.20;;;;;;5072372;28;19912;-92
2022/10/09 08:27:47;;;;;;;;;;;28.10;45.00;;;;;;5073245;28;19908;-92
2022/10/09 08:30:13;;;;;;;;;;;28.10;44.80;;;;;;5073048;28;19919;-92
2022/10/09 08:32:41;;;;;;;;;;;28.30;44.70;;;;;;5071436;28;19908;-91
2022/10/09 08:35:10;;;;;;;;;;;28.30;44.50;;;;;;5069803;28;19908;-92
2022/10/09 08:37:36;;;;;;;;;;;28.50;44.40;;;;;;5087201;28;19923;-91
2022/10/09 08:40:02;;;;;;;;;;;28.50;44.20;;;;;;5071154;28;19915;-91
2022/10/09 08:42:42;;;;;;;;;;;28.70;44.20;;;;;;5072908;28;20285;-91
2022/10/09 08:45:13;;;;;;;;;;;28.80;44.20;;;;;;5071944;28;19974;-91
2022/10/09 08:47:56;;;;;;;;;;;28.90;44.10;;;;;;5071769;28;19977;-91
2022/10/09 08:50:24;;;;;;;;;;;28.90;44.40;;;;;;5071479;28;19908;-91
2022/10/09 08:53:02;;;;;;;;;;;29.00;44.10;;;;;;5092248;28;19912;-91
2022/10/09 08:55:33;;;;;;;;;;;29.00;44.10;;;;;;5074340;28;20022;-91
2022/10/09 08:58:28;;;;;;;;;;;29.00;44.20;;;;;;5091530;28;19908;-90
2022/10/09 09:01:12;;;;;;;;;;;29.00;44.40;;;;;;5076416;28;19908;-94
2022/10/09 09:03:41;;;;;;;;;;;29.00;44.40;;;;;;5080310;28;19908;-93
2022/10/09 09:06:26;;;;;;;;;;;29.10;44.50;;;;;;5082036;28;19912;-92
2022/10/09 09:08:54;;;;;;;;;;;29.20;44.60;;;;;;5077912;28;19916;-92
2022/10/09 09:11:49;;;;;;;;;;;29.30;44.50;;;;;;5077627;28;19908;-91
2022/10/09 09:14:36;;;;;;;;;;;29.40;44.50;;;;;;5083325;28;19912;-92
2022/10/09 09:17:05;;;;;;;;;;;29.60;44.50;;;;;;5084233;28;19912;-93
2022/10/09 09:19:41;;;;;;;;;;;29.60;44.40;;;;;;5087574;28;19935;-93
2022/10/09 09:22:12;;;;;;;;;;;29.70;44.50;;;;;;5079717;28;19999;-92
2022/10/09 09:24:44;;;;;;;;;;;29.70;44.50;;;;;;5084040;28;19912;-92
2022/10/09 09:27:15;;;;;;;;;;;29.70;44.40;;;;;;5074346;28;19915;-94
2022/10/09 09:29:43;;;;;;;;;;;29.60;44.40;;;;;;5089309;28;19912;-94
2022/10/09 09:32:15;;;;;;;;;;;29.50;44.50;;;;;;5081072;28;20123;-93
2022/10/09 09:34:41;;;;;;;;;;;29.30;44.40;;;;;;5078664;28;19985;-93
2022/10/09 09:37:09;;;;;;;;;;;29.00;44.70;;;;;;5073071;28;19993;-93
2022/10/09 09:39:38;;;;;;;;;;;28.30;44.80;;;;;;5070723;28;19939;-93
2022/10/09 09:42:18;;;;;;;;;;;27.50;45.20;;;;;;5073225;28;19955;-92
2022/10/09 09:45:25;;;;;;;;;;;26.70;45.80;;;;;;5073818;28;20055;-92
2022/10/09 09:47:53;;;;;;;;;;;26.10;46.60;;;;;;5073045;28;19916;-92
2022/10/09 09:50:38;;;;;;;;;;;25.30;47.30;;;;;;5074873;28;19975;-92
2022/10/09 09:53:27;;;;;;;;;;;24.80;48.00;;;;;;5074162;28;19931;-93
2022/10/09 09:55:53;;;;;;;;;;;24.40;48.70;;;;;;5068085;28;20050;-92
2022/10/09 09:58:22;;;;;;;;;;;24.00;49.20;;;;;;5071624;28;19920;-91
2022/10/09 10:00:59;;;;;;;;;;;23.70;49.60;;;;;;5073001;28;19908;-93
2022/10/09 10:03:28;;;;;;;;;;;23.50;50.00;;;;;;5073875;28;20186;-92
2022/10/09 10:05:57;;;;;;;;;;;23.30;50.50;;;;;;5075106;28;19912;-92
2022/10/09 10:08:33;;;;;;;;;;;23.10;50.80;;;;;;5073606;28;20369;-93
2022/10/09 10:11:04;;;;;;;;;;;23.00;51.20;;;;;;5073425;28;19912;-93
2022/10/09 10:13:31;;;;;;;;;;;22.90;51.60;;;;;;5073826;28;19926;-91
2022/10/09 10:15:56;;;;;;;;;;;22.70;51.90;;;;;;5075272;28;19987;-92
2022/10/09 10:18:24;;;;;;;;;;;22.60;52.20;;;;;;5073040;28;19999;-93
2022/10/09 10:20:52;;;;;;;;;;;22.50;52.30;;;;;;5072816;28;19908;-93
2022/10/09 10:23:33;;;;;;;;;;;22.40;52.40;;;;;;5073910;28;19947;-92
2022/10/09 10:26:03;;;;;;;;;;;22.40;52.50;;;;;;5074860;28;19936;-91
2022/10/09 10:28:49;;;;;;;;;;;22.30;52.60;;;;;;5072453;28;20245;-91
2022/10/09 10:31:18;;;;;;;;;;;22.20;52.80;;;;;;5064504;28;19947;-91
2022/10/09 10:33:49;;;;;;;;;;;22.10;53.00;;;;;;5074494;28;20035;-93
2022/10/09 10:36:15;;;;;;;;;;;22.00;53.00;;;;;;5072138;28;19920;-94
2022/10/09 10:38:49;;;;;;;;;;;21.90;53.30;;;;;;5073516;28;19920;-94
2022/10/09 10:41:16;;;;;;;;;;;21.80;53.50;;;;;;5073613;28;19990;-91
2022/10/09 10:43:45;;;;;;;;;;;21.80;53.90;;;;;;5071319;28;19908;-91
2022/10/09 10:46:13;;;;;;;;;;;21.70;54.00;;;;;;5071603;28;19912;-91
2022/10/09 10:48:45;;;;;;;;;;;21.60;54.10;;;;;;5072475;28;20008;-92
2022/10/09 10:51:20;;;;;;;;;;;21.60;54.40;;;;;;5076590;28;20012;-93
2022/10/09 10:54:04;;;;;;;;;;;21.50;54.50;;;;;;5074755;28;19916;-93
2022/10/09 10:56:34;;;;;;;;;;;21.50;54.70;;;;;;5075408;28;19915;-93
2022/10/09 10:59:08;;;;;;;;;;;21.40;54.90;;;;;;5074563;28;19908;-93
2022/10/09 11:01:52;;;;;;;;;;;21.40;55.20;;;;;;5075382;28;20012;-93
2022/10/09 11:04:37;;;;;;;;;;;21.30;55.30;;;;;;5076110;28;19966;-93
2022/10/09 11:07:12;;;;;;;;;;;21.30;55.60;;;;;;5073126;28;20217;-92
2022/10/09 11:09:57;;;;;;;;;;;21.20;55.70;;;;;;5075212;28;19919;-94
2022/10/09 11:12:28;;;;;;;;;;;21.20;55.90;;;;;;5077012;28;19908;-94
2022/10/09 11:14:54;;;;;;;;;;;21.10;56.20;;;;;;5076524;28;19935;-93
2022/10/09 11:17:20;;;;;;;;;;;21.10;56.30;;;;;;5074448;28;19908;-93
2022/10/09 11:19:55;;;;;;;;;;;21.10;56.40;;;;;;5073603;28;19962;-91
2022/10/09 11:22:41;;;;;;;;;;;21.10;56.60;;;;;;5074784;28;19916;-92
2022/10/09 11:25:06;;;;;;;;;;;21.00;56.70;;;;;;5075744;28;20195;-92
2022/10/09 11:27:37;;;;;;;;;;;21.00;56.80;;;;;;5077116;28;19944;-92
2022/10/09 11:30:13;;;;;;;;;;;20.90;56.90;;;;;;5072814;28;20178;-93
2022/10/09 11:32:42;;;;;;;;;;;20.90;56.90;;;;;;5074068;28;20182;-92
2022/10/09 11:35:10;;;;;;;;;;;20.90;57.20;;;;;;5071701;28;19914;-92
2022/10/09 11:37:38;;;;;;;;;;;20.90;57.30;;;;;;5075936;28;20320;-93
2022/10/09 11:40:13;;;;;;;;;;;20.80;57.10;;;;;;5077826;28;20285;-92
2022/10/09 11:42:39;;;;;;;;;;;20.80;57.30;;;;;;5074539;28;19908;-93
2022/10/09 11:45:17;;;;;;;;;;;20.80;57.50;;;;;;5073531;28;19914;-93
2022/10/09 11:47:53;;;;;;;;;;;20.80;57.60;;;;;;5074144;28;19908;-92
2022/10/09 11:50:37;;;;;;;;;;;20.80;57.60;;;;;;5080960;28;19909;-93
2022/10/09 11:53:14;;;;;;;;;;;20.70;57.60;;;;;;5071926;28;19974;-92
2022/10/09 11:55:43;;;;;;;;;;;20.70;57.70;;;;;;5076824;28;19908;-92
2022/10/09 11:58:13;;;;;;;;;;;20.70;57.50;;;;;;5071810;28;20008;-92
2022/10/09 12:00:42;;;;;;;;;;;20.60;57.40;;;;;;5068182;28;19908;-92
2022/10/09 12:03:21;;;;;;;;;;;20.60;57.30;;;;;;5068009;28;19918;-92
2022/10/09 12:05:48;;;;;;;;;;;20.60;57.10;;;;;;5074083;28;19923;-92
2022/10/09 12:08:24;;;;;;;;;;;20.50;57.60;;;;;;5070724;28;20179;-91
2022/10/09 12:10:54;;;;;;;;;;;20.60;57.60;;;;;;5073422;28;19908;-92
2022/10/09 12:13:49;;;;;;;;;;;20.50;57.60;;;;;;5073921;28;19908;-93
2022/10/09 12:16:33;;;;;;;;;;;20.50;57.70;;;;;;5064042;28;19923;-90
2022/10/09 12:19:00;;;;;;;;;;;20.50;57.80;;;;;;5071190;28;19912;-91
2022/10/09 12:21:39;;;;;;;;;;;20.50;58.10;;;;;;5088183;28;19944;-91
2022/10/09 12:24:08;;;;;;;;;;;20.40;57.70;;;;;;5069176;28;19942;-92
2022/10/09 12:26:39;;;;;;;;;;;20.40;57.30;;;;;;5069642;28;20281;-91
2022/10/09 12:29:05;;;;;;;;;;;20.40;57.40;;;;;;5072762;28;20145;-91
2022/10/09 12:31:40;;;;;;;;;;;20.30;57.40;;;;;;5075422;28;19919;-91
2022/10/09 12:34:18;;;;;;;;;;;20.30;57.40;;;;;;5060699;28;19999;-92
2022/10/09 12:36:43;;;;;;;;;;;20.30;57.70;;;;;;5057371;28;20329;-91
2022/10/09 12:39:22;;;;;;;;;;;20.30;58.10;;;;;;5055357;28;19966;-91
2022/10/09 12:41:53;;;;;;;;;;;20.30;58.20;;;;;;5056943;28;20218;-93
2022/10/09 12:44:30;;;;;;;;;;;20.20;58.20;;;;;;5055651;28;19912;-90
2022/10/09 12:47:01;;;;;;;;;;;20.30;58.50;;;;;;5055382;28;20288;-90
2022/10/09 12:49:27;;;;;;;;;;;20.20;58.30;;;;;;5054411;28;19921;-90
2022/10/09 12:51:53;;;;;;;;;;;20.20;58.20;;;;;;5056307;28;19974;-91
2022/10/09 12:54:19;;;;;;;;;;;20.20;58.30;;;;;;5055018;28;20165;-91
2022/10/09 12:56:46;;;;;;;;;;;20.20;58.40;;;;;;5054217;28;20368;-91
2022/10/09 12:59:12;;;;;;;;;;;20.20;58.50;;;;;;5053542;28;20186;-90
2022/10/09 13:01:39;;;;;;;;;;;20.20;58.40;;;;;;5071554;22;19932;-9
2022/10/09 13:04:07;;;;;;;;;;;20.20;58.50;;;;;;5078838;28;19943;-10
2022/10/09 13:06:40;;;;;;;;;;;20.20;58.20;;;;;;5077961;28;19908;-10
2022/10/09 13:09:18;;;;;;;;;;;20.10;58.40;;;;;;5078871;28;20216;-10
2022/10/09 13:11:44;;;;;;;;;;;20.10;58.90;;;;;;5078037;28;19920;-10
2022/10/09 13:14:23;;;;;;;;;;;20.10;58.70;;;;;;5077455;28;19909;-10
2022/10/09 13:16:56;;;;;;;;;;;20.10;58.70;;;;;;5076746;28;19916;-11
2022/10/09 13:19:26;;;;;;;;;;;20.10;58.80;;;;;;5077314;28;19939;-10
2022/10/09 13:22:05;;;;;;;;;;;20.10;58.90;;;;;;5077283;28;20212;-11
2022/10/09 13:24:34;;;;;;;;;;;20.10;58.70;;;;;;5076444;28;19990;-11
2022/10/09 13:27:01;;;;;;;;;;;20.10;58.80;;;;;;5077714;28;19908;-10
2022/10/09 13:29:28;;;;;;;;;;;20.10;59.00;;;;;;5077324;28;19920;-8
2022/10/09 13:31:53;;;;;;;;;;;20.10;58.90;;;;;;5093744;28;19916;-10
2022/10/09 13:34:22;;;;;;;;;;;20.00;58.80;;;;;;5077796;28;20266;-9
2022/10/09 13:36:48;;;;;;;;;;;20.10;58.70;;;;;;5076418;28;19922;-9
2022/10/09 13:39:14;;;;;;;;;;;20.00;58.80;;;;;;5075313;28;19909;-10
2022/10/09 13:41:40;;;;;;;;;;;20.00;58.80;;;;;;5076166;28;19908;-10
2022/10/09 13:44:06;;;;;;;;;;;20.10;58.60;;;;;;5073947;28;19912;-10
2022/10/09 13:46:31;;;;;;;;;;;20.10;58.80;;;;;;5067686;28;20188;-10
2022/10/09 13:48:58;;;;;;;;;;;20.00;58.70;;;;;;5070223;28;19922;-8
2022/10/09 13:51:23;;;;;;;;;;;20.00;58.40;;;;;;5076905;28;19908;-10
2022/10/09 13:53:49;;;;;;;;;;;20.00;58.60;;;;;;5077494;28;20174;-9
2022/10/09 13:56:14;;;;;;;;;;;20.00;58.40;;;;;;5076951;28;19915;-10
2022/10/09 13:58:40;;;;;;;;;;;20.00;58.80;;;;;;5069506;28;19916;-10
2022/10/09 14:01:07;;;;;;;;;;;20.00;58.70;;;;;;5068724;28;19913;-10
2022/10/09 14:03:32;;;;;;;;;;;20.00;58.60;;;;;;5067380;28;19958;-8
2022/10/09 14:05:59;;;;;;;;;;;20.00;58.50;;;;;;5068105;28;20151;-9
2022/10/09 14:08:25;;;;;;;;;;;20.00;58.60;;;;;;5067377;28;19909;-8
2022/10/09 14:10:50;;;;;;;;;;;20.00;58.70;;;;;;5071043;28;19909;-9
2022/10/09 14:13:16;;;;;;;;;;;20.00;58.60;;;;;;5070630;28;19912;-10
2022/10/09 14:15:41;;;;;;;;;;;19.90;58.60;;;;;;5071475;28;20455;-10
2022/10/09 14:18:07;;;;;;;;;;;19.90;58.60;;;;;;5072017;28;19939;-10
2022/10/09 14:20:33;;;;;;;;;;;19.90;58.80;;;;;;5070886;28;19908;-10
2022/10/09 14:22:59;;;;;;;;;;;19.90;58.90;;;;;;5072407;28;20180;-10
2022/10/09 14:25:25;;;;;;;;;;;19.90;58.60;;;;;;5072875;28;19970;-10
2022/10/09 14:27:50;;;;;;;;;;;19.90;58.60;;;;;;5070613;28;19913;-10
2022/10/09 14:30:16;;;;;;;;;;;19.90;58.50;;;;;;5070783;28;19909;-10
2022/10/09 14:32:42;;;;;;;;;;;19.90;58.70;;;;;;5069193;28;19908;-10
2022/10/09 14:35:08;;;;;;;;;;;20.00;58.60;;;;;;5068958;28;19913;-10